PST,Max TemperatureF,Mean TemperatureF,Min TemperatureF,Max Dew PointF,MeanDew PointF,Min DewpointF,Max Humidity, Mean Humidity, Min Humidity, Max Sea Level PressureIn, Mean Sea Level PressureIn, Min Sea Level PressureIn, Max VisibilityMiles, Mean VisibilityMiles, Min VisibilityMiles, Max Wind SpeedMPH, Mean Wind SpeedMPH, Max Gust SpeedMPH,PrecipitationIn, CloudCover, Events, WindDirDegrees
2012-11-1,72,62,53,52,50,47,96,80,42,30.04,29.99,29.93,10,5,0,7,1,,0.00,4,Fog,151
2012-11-2,73,62,51,54,50,48,89,74,46,30.02,29.97,29.90,10,7,4,8,1,,0.00,3,,97
2012-11-3,82,66,50,52,45,31,89,58,17,30.04,30.00,29.96,10,9,5,8,1,,0.00,0,,288
2012-11-4,90,70,50,45,31,17,77,32,7,30.08,30.04,30.00,10,10,10,8,1,,0.00,0,,326
2012-11-5,91,76,60,40,30,24,47,23,9,30.08,30.02,29.96,10,10,6,12,2,,0.00,0,,106
2012-11-6,84,70,55,54,42,33,78,41,17,30.08,30.02,29.98,10,10,10,8,2,,0.00,0,,119
2012-11-7,75,63,51,54,51,46,97,78,35,30.07,30.01,29.93,10,6,0,7,2,,0.00,2,Fog,122
2012-11-8,62,58,55,55,52,49,94,81,67,30.01,29.93,29.86,10,8,2,7,4,,0.03,8,Rain,187
2012-11-9,61,54,46,45,39,30,83,59,32,29.93,29.88,29.83,10,10,10,13,4,20,0.01,2,,260
2012-11-10,59,50,41,38,29,22,76,47,26,30.17,30.05,29.94,10,10,10,18,4,31,0.00,2,,334
2012-11-11,64,55,46,25,16,5,36,22,13,30.29,30.23,30.15,10,10,10,14,7,21,0.00,0,,358
2012-11-12,70,61,52,9,5,0,17,11,8,30.25,30.17,30.09,10,10,10,21,14,30,0.00,0,,359
2012-11-13,80,66,51,26,8,0,34,13,5,30.12,30.06,30.00,10,10,10,15,7,24,0.00,0,,355
2012-11-14,78,62,46,33,21,8,47,27,7,30.07,30.03,29.97,10,10,10,9,1,,0.00,2,,41
2012-11-15,66,59,52,50,36,25,83,46,22,30.09,30.06,30.01,10,10,8,7,1,,0.01,6,Rain,83
2012-11-16,66,59,52,55,50,43,93,73,42,30.12,30.06,30.01,10,8,5,8,2,,0.08,7,Rain,198
2012-11-17,61,59,57,57,56,54,94,91,82,30.10,30.06,30.03,10,6,2,8,4,,0.43,8,Rain,139
2012-11-18,66,60,52,56,53,49,94,83,59,30.17,30.11,30.06,10,9,6,7,2,,0.02,5,Rain,260
2012-11-19,69,58,48,51,49,44,94,76,42,30.25,30.19,30.14,10,10,10,6,1,,0.00,3,,291
2012-11-20,73,60,46,50,46,39,93,67,30,30.16,30.08,30.01,10,10,10,6,1,,0.00,0,,163
2012-11-21,71,58,46,51,48,43,89,71,42,30.10,30.04,30.00,10,10,8,8,1,,0.00,0,,145
2012-11-22,77,62,46,53,49,45,93,70,32,30.11,30.06,30.01,10,8,4,5,1,,0.01,0,,181
2012-11-23,82,64,46,50,39,28,93,52,14,30.15,30.10,30.05,10,8,4,8,1,,0.00,0,,341
2012-11-24,84,66,48,41,34,19,66,39,9,30.08,30.00,29.92,10,10,10,5,0,,0.00,0,,310
2012-11-25,73,60,46,54,48,39,96,72,35,29.98,29.92,29.85,10,6,1,10,2,,0.00,3,,118
2012-11-26,68,60,51,52,50,48,94,79,50,30.10,30.03,29.97,6,4,2,7,2,,0.00,4,,119
2012-11-27,71,60,48,52,49,46,94,77,42,30.16,30.10,30.03,10,6,3,6,1,,0.00,3,,83
2012-11-28,64,58,53,54,50,48,94,80,54,30.20,30.15,30.09,10,6,2,10,3,,0.01,7,Rain,141
2012-11-29,60,58,55,58,56,53,97,94,88,30.21,30.16,30.13,6,3,2,9,5,,0.18,8,Rain,153
2012-11-30,66,62,57,61,57,54,97,92,73,30.14,30.11,30.04,10,6,2,10,4,,0.28,7,Rain,138